sensor_id;sensor_type;location;lat;lon;timestamp;pressure;altitude;pressure_sealevel;temperature;humidity
31538;BME280;18147;51.952;6.146;2023-03-18T00:00:49;100665.09;;;12.99;100.00
31538;BME280;18147;51.952;6.146;2023-03-18T00:03:15;100670.09;;;12.92;100.00
31538;BME280;18147;51.952;6.146;2023-03-18T00:05:41;100661.00;;;12.71;100.00
31538;BME280;18147;51.952;6.146;2023-03-18T00:08:07;100660.81;;;12.50;100.00
31538;BME280;18147;51.952;6.146;2023-03-18T00:10:34;100651.72;;;12.64;100.00
31538;BME280;18147;51.952;6.146;2023-03-18T00:13:00;100660.88;;;12.73;100.00
31538;BME280;18147;51.952;6.146;2023-03-18T00:15:26;100660.72;;;12.39;100.00
31538;BME280;18147;51.952;6.146;2023-03-18T00:17:53;100671.56;;;12.25;100.00
31538;BME280;18147;51.952;6.146;2023-03-18T00:20:18;100669.94;;;12.35;100.00
31538;BME280;18147;51.952;6.146;2023-03-18T00:22:53;100674.03;;;12.28;100.00
31538;BME280;18147;51.952;6.146;2023-03-18T00:25:20;100670.09;;;12.21;100.00
31538;BME280;18147;51.952;6.146;2023-03-18T00:27:45;100671.56;;;12.25;100.00
31538;BME280;18147;51.952;6.146;2023-03-18T00:30:12;100674.75;;;12.30;100.00
31538;BME280;18147;51.952;6.146;2023-03-18T00:32:37;100681.16;;;12.40;100.00
31538;BME280;18147;51.952;6.146;2023-03-18T00:35:03;100690.59;;;11.96;100.00
31538;BME280;18147;51.952;6.146;2023-03-18T00:37:30;100678.56;;;12.14;100.00
31538;BME280;18147;51.952;6.146;2023-03-18T00:40:09;100684.59;;;12.05;100.00
31538;BME280;18147;51.952;6.146;2023-03-18T00:42:43;100685.66;;;12.03;100.00
31538;BME280;18147;51.952;6.146;2023-03-18T00:45:13;100686.94;;;11.97;100.00
31538;BME280;18147;51.952;6.146;2023-03-18T00:47:41;100696.00;;;12.07;100.00
31538;BME280;18147;51.952;6.146;2023-03-18T00:50:08;100697.06;;;12.05;100.00
31538;BME280;18147;51.952;6.146;2023-03-18T00:52:34;100697.38;;;12.13;100.00
31538;BME280;18147;51.952;6.146;2023-03-18T00:55:00;100703.50;;;11.89;100.00
31538;BME280;18147;51.952;6.146;2023-03-18T00:57:27;100708.84;;;12.02;100.00
31538;BME280;18147;51.952;6.146;2023-03-18T00:59:54;100711.19;;;11.94;100.00
31538;BME280;18147;51.952;6.146;2023-03-18T01:02:20;100709.09;;;11.86;100.00
31538;BME280;18147;51.952;6.146;2023-03-18T01:04:45;100708.47;;;12.19;100.00
31538;BME280;18147;51.952;6.146;2023-03-18T01:07:11;100713.66;;;11.84;100.00
31538;BME280;18147;51.952;6.146;2023-03-18T01:09:37;100712.38;;;12.03;100.00
31538;BME280;18147;51.952;6.146;2023-03-18T01:12:07;100717.50;;;12.06;100.00
31538;BME280;18147;51.952;6.146;2023-03-18T01:14:33;100712.09;;;11.82;100.00
31538;BME280;18147;51.952;6.146;2023-03-18T01:17:00;100709.59;;;11.79;100.00
31538;BME280;18147;51.952;6.146;2023-03-18T01:19:26;100704.38;;;11.77;100.00
31538;BME280;18147;51.952;6.146;2023-03-18T01:21:53;100708.31;;;11.97;100.00
31538;BME280;18147;51.952;6.146;2023-03-18T01:24:19;100704.03;;;12.07;100.00
31538;BME280;18147;51.952;6.146;2023-03-18T01:26:45;100699.06;;;12.27;100.00
31538;BME280;18147;51.952;6.146;2023-03-18T01:29:11;100694.50;;;12.16;100.00
31538;BME280;18147;51.952;6.146;2023-03-18T01:31:36;100699.66;;;11.93;100.00
31538;BME280;18147;51.952;6.146;2023-03-18T01:34:08;100694.72;;;12.13;100.00
31538;BME280;18147;51.952;6.146;2023-03-18T01:36:42;100702.97;;;11.97;100.00
31538;BME280;18147;51.952;6.146;2023-03-18T01:39:08;100707.25;;;11.74;100.00
31538;BME280;18147;51.952;6.146;2023-03-18T01:41:35;100709.16;;;11.72;100.00
31538;BME280;18147;51.952;6.146;2023-03-18T01:44:01;100708.00;;;11.89;100.00
31538;BME280;18147;51.952;6.146;2023-03-18T01:49:08;100717.63;;;11.91;100.00
31538;BME280;18147;51.952;6.146;2023-03-18T01:51:35;100720.38;;;12.03;100.00
31538;BME280;18147;51.952;6.146;2023-03-18T01:54:04;100723.41;;;11.85;100.00
31538;BME280;18147;51.952;6.146;2023-03-18T01:56:32;100722.97;;;11.91;100.00
31538;BME280;18147;51.952;6.146;2023-03-18T01:59:00;100721.69;;;11.84;100.00
31538;BME280;18147;51.952;6.146;2023-03-18T02:01:34;100720.28;;;12.04;100.00
31538;BME280;18147;51.952;6.146;2023-03-18T02:04:06;100719.53;;;11.89;100.00
31538;BME280;18147;51.952;6.146;2023-03-18T02:06:33;100720.19;;;11.80;100.00
31538;BME280;18147;51.952;6.146;2023-03-18T02:08:59;100717.09;;;11.86;100.00
31538;BME280;18147;51.952;6.146;2023-03-18T02:11:26;100717.59;;;12.04;100.00
31538;BME280;18147;51.952;6.146;2023-03-18T02:13:56;100716.88;;;12.02;100.00
31538;BME280;18147;51.952;6.146;2023-03-18T02:16:35;100715.25;;;12.00;100.00
31538;BME280;18147;51.952;6.146;2023-03-18T02:19:27;100713.34;;;12.02;100.00
31538;BME280;18147;51.952;6.146;2023-03-18T02:22:21;100713.03;;;12.06;100.00
31538;BME280;18147;51.952;6.146;2023-03-18T02:24:58;100701.81;;;12.01;100.00
31538;BME280;18147;51.952;6.146;2023-03-18T02:27:30;100710.88;;;12.11;100.00
31538;BME280;18147;51.952;6.146;2023-03-18T02:30:01;100706.28;;;12.01;100.00
31538;BME280;18147;51.952;6.146;2023-03-18T02:32:32;100709.81;;;12.01;100.00
31538;BME280;18147;51.952;6.146;2023-03-18T02:35:03;100709.06;;;11.99;100.00
31538;BME280;18147;51.952;6.146;2023-03-18T02:37:31;100709.38;;;11.95;100.00
31538;BME280;18147;51.952;6.146;2023-03-18T02:40:18;100710.66;;;12.02;100.00
31538;BME280;18147;51.952;6.146;2023-03-18T02:42:46;100713.16;;;11.92;100.00
31538;BME280;18147;51.952;6.146;2023-03-18T02:45:44;100716.13;;;11.87;100.00
31538;BME280;18147;51.952;6.146;2023-03-18T02:48:14;100719.00;;;11.97;100.00
31538;BME280;18147;51.952;6.146;2023-03-18T02:50:42;100724.47;;;11.70;100.00
31538;BME280;18147;51.952;6.146;2023-03-18T02:53:13;100728.41;;;11.64;100.00
31538;BME280;18147;51.952;6.146;2023-03-18T02:55:39;100734.72;;;11.76;100.00
31538;BME280;18147;51.952;6.146;2023-03-18T02:58:04;100739.97;;;11.65;100.00
31538;BME280;18147;51.952;6.146;2023-03-18T03:00:32;100744.94;;;11.70;100.00
31538;BME280;18147;51.952;6.146;2023-03-18T03:02:58;100749.88;;;11.63;100.00
31538;BME280;18147;51.952;6.146;2023-03-18T03:05:24;100754.47;;;11.35;100.00
31538;BME280;18147;51.952;6.146;2023-03-18T03:07:50;100763.19;;;11.37;100.00
31538;BME280;18147;51.952;6.146;2023-03-18T03:10:16;100758.09;;;11.47;100.00
31538;BME280;18147;51.952;6.146;2023-03-18T03:12:42;100760.34;;;11.53;100.00
31538;BME280;18147;51.952;6.146;2023-03-18T03:15:09;100760.09;;;11.31;100.00
31538;BME280;18147;51.952;6.146;2023-03-18T03:17:40;100767.56;;;11.38;100.00
31538;BME280;18147;51.952;6.146;2023-03-18T03:20:06;100763.75;;;11.68;100.00
31538;BME280;18147;51.952;6.146;2023-03-18T03:22:33;100766.56;;;11.66;100.00
31538;BME280;18147;51.952;6.146;2023-03-18T03:24:58;100766.63;;;11.39;100.00
31538;BME280;18147;51.952;6.146;2023-03-18T03:27:25;100772.41;;;11.46;100.00
31538;BME280;18147;51.952;6.146;2023-03-18T03:29:52;100761.75;;;11.72;100.00
31538;BME280;18147;51.952;6.146;2023-03-18T03:32:19;100766.34;;;11.57;100.00
31538;BME280;18147;51.952;6.146;2023-03-18T03:34:46;100779.56;;;11.58;100.00
31538;BME280;18147;51.952;6.146;2023-03-18T03:37:12;100775.09;;;11.46;100.00
31538;BME280;18147;51.952;6.146;2023-03-18T03:39:37;100779.47;;;11.60;100.00
31538;BME280;18147;51.952;6.146;2023-03-18T03:42:03;100784.72;;;11.61;100.00
31538;BME280;18147;51.952;6.146;2023-03-18T03:44:29;100778.50;;;11.74;100.00
31538;BME280;18147;51.952;6.146;2023-03-18T03:46:55;100778.47;;;11.35;100.00
31538;BME280;18147;51.952;6.146;2023-03-18T03:49:21;100776.19;;;11.29;100.00
31538;BME280;18147;51.952;6.146;2023-03-18T03:51:47;100776.75;;;11.34;100.00
31538;BME280;18147;51.952;6.146;2023-03-18T03:54:13;100774.88;;;11.62;100.00
31538;BME280;18147;51.952;6.146;2023-03-18T03:56:39;100785.56;;;11.62;100.00
31538;BME280;18147;51.952;6.146;2023-03-18T03:59:05;100785.44;;;11.51;100.00
31538;BME280;18147;51.952;6.146;2023-03-18T04:01:50;100793.25;;;11.66;100.00
31538;BME280;18147;51.952;6.146;2023-03-18T04:04:16;100792.63;;;11.63;100.00
31538;BME280;18147;51.952;6.146;2023-03-18T04:06:41;100795.09;;;11.66;100.00
31538;BME280;18147;51.952;6.146;2023-03-18T04:09:07;100799.88;;;11.61;100.00
31538;BME280;18147;51.952;6.146;2023-03-18T04:11:33;100801.16;;;11.55;100.00
31538;BME280;18147;51.952;6.146;2023-03-18T04:13:59;100806.19;;;11.60;100.00
31538;BME280;18147;51.952;6.146;2023-03-18T04:16:25;100799.25;;;11.70;100.00
31538;BME280;18147;51.952;6.146;2023-03-18T04:18:51;100797.94;;;11.50;100.00
31538;BME280;18147;51.952;6.146;2023-03-18T04:21:20;100804.19;;;11.76;100.00
31538;BME280;18147;51.952;6.146;2023-03-18T04:23:51;100802.16;;;11.80;100.00
31538;BME280;18147;51.952;6.146;2023-03-18T04:26:17;100811.41;;;11.61;100.00
31538;BME280;18147;51.952;6.146;2023-03-18T04:28:43;100810.75;;;11.85;100.00
31538;BME280;18147;51.952;6.146;2023-03-18T04:31:12;100804.91;;;11.65;100.00
31538;BME280;18147;51.952;6.146;2023-03-18T04:33:39;100812.31;;;11.75;100.00
31538;BME280;18147;51.952;6.146;2023-03-18T04:36:05;100808.81;;;11.47;100.00
31538;BME280;18147;51.952;6.146;2023-03-18T04:38:32;100805.81;;;11.39;100.00
31538;BME280;18147;51.952;6.146;2023-03-18T04:40:58;100807.56;;;11.53;100.00
31538;BME280;18147;51.952;6.146;2023-03-18T04:43:24;100803.06;;;11.53;100.00
31538;BME280;18147;51.952;6.146;2023-03-18T04:45:49;100815.69;;;11.51;100.00
31538;BME280;18147;51.952;6.146;2023-03-18T04:48:16;100816.53;;;11.52;100.00
31538;BME280;18147;51.952;6.146;2023-03-18T04:50:44;100811.06;;;11.40;100.00
31538;BME280;18147;51.952;6.146;2023-03-18T04:53:15;100817.81;;;11.46;100.00
31538;BME280;18147;51.952;6.146;2023-03-18T04:55:41;100815.28;;;11.70;100.00
31538;BME280;18147;51.952;6.146;2023-03-18T04:58:10;100810.88;;;11.56;100.00
31538;BME280;18147;51.952;6.146;2023-03-18T05:00:40;100814.66;;;11.27;100.00
31538;BME280;18147;51.952;6.146;2023-03-18T05:03:35;100810.75;;;11.58;100.00
31538;BME280;18147;51.952;6.146;2023-03-18T05:06:01;100814.22;;;11.60;100.00
31538;BME280;18147;51.952;6.146;2023-03-18T05:08:36;100811.31;;;11.63;100.00
31538;BME280;18147;51.952;6.146;2023-03-18T05:11:02;100813.31;;;11.59;100.00
31538;BME280;18147;51.952;6.146;2023-03-18T05:13:29;100811.72;;;11.70;100.00
31538;BME280;18147;51.952;6.146;2023-03-18T05:15:55;100816.88;;;11.60;100.00
31538;BME280;18147;51.952;6.146;2023-03-18T05:18:21;100826.69;;;11.59;100.00
31538;BME280;18147;51.952;6.146;2023-03-18T05:20:49;100821.69;;;11.67;100.00
31538;BME280;18147;51.952;6.146;2023-03-18T05:23:16;100823.94;;;11.61;100.00
31538;BME280;18147;51.952;6.146;2023-03-18T05:25:48;100826.53;;;11.35;100.00
31538;BME280;18147;51.952;6.146;2023-03-18T05:28:15;100830.53;;;11.15;100.00
31538;BME280;18147;51.952;6.146;2023-03-18T05:30:48;100831.91;;;11.48;100.00
31538;BME280;18147;51.952;6.146;2023-03-18T05:33:15;100841.59;;;11.36;100.00
31538;BME280;18147;51.952;6.146;2023-03-18T05:35:52;100836.25;;;11.36;100.00
31538;BME280;18147;51.952;6.146;2023-03-18T05:38:22;100841.34;;;11.27;100.00
31538;BME280;18147;51.952;6.146;2023-03-18T05:40:48;100842.28;;;11.53;100.00
31538;BME280;18147;51.952;6.146;2023-03-18T05:43:31;100838.63;;;11.41;100.00
31538;BME280;18147;51.952;6.146;2023-03-18T05:45:57;100849.25;;;11.28;100.00
31538;BME280;18147;51.952;6.146;2023-03-18T05:48:39;100854.03;;;11.23;100.00
31538;BME280;18147;51.952;6.146;2023-03-18T05:51:06;100856.88;;;11.47;100.00
31538;BME280;18147;51.952;6.146;2023-03-18T05:53:34;100859.06;;;11.28;100.00
31538;BME280;18147;51.952;6.146;2023-03-18T05:56:09;100858.34;;;11.38;100.00
31538;BME280;18147;51.952;6.146;2023-03-18T05:58:36;100860.72;;;11.43;100.00
31538;BME280;18147;51.952;6.146;2023-03-18T06:01:28;100864.78;;;11.36;100.00
31538;BME280;18147;51.952;6.146;2023-03-18T06:03:55;100863.84;;;11.50;100.00
31538;BME280;18147;51.952;6.146;2023-03-18T06:06:21;100869.88;;;11.39;100.00
31538;BME280;18147;51.952;6.146;2023-03-18T06:08:46;100871.25;;;11.32;100.00
31538;BME280;18147;51.952;6.146;2023-03-18T06:11:13;100856.88;;;11.47;100.00
31538;BME280;18147;51.952;6.146;2023-03-18T06:13:39;100868.66;;;11.57;100.00
31538;BME280;18147;51.952;6.146;2023-03-18T06:16:05;100871.88;;;11.50;100.00
31538;BME280;18147;51.952;6.146;2023-03-18T06:18:32;100881.03;;;11.46;100.00
31538;BME280;18147;51.952;6.146;2023-03-18T06:20:59;100894.72;;;11.54;100.00
31538;BME280;18147;51.952;6.146;2023-03-18T06:23:25;100872.28;;;11.83;100.00
31538;BME280;18147;51.952;6.146;2023-03-18T06:25:51;100883.00;;;11.69;100.00
31538;BME280;18147;51.952;6.146;2023-03-18T06:28:19;100885.66;;;11.56;100.00
31538;BME280;18147;51.952;6.146;2023-03-18T06:30:45;100884.22;;;11.78;100.00
31538;BME280;18147;51.952;6.146;2023-03-18T06:33:11;100887.25;;;11.86;100.00
31538;BME280;18147;51.952;6.146;2023-03-18T06:35:37;100888.78;;;11.90;100.00
31538;BME280;18147;51.952;6.146;2023-03-18T06:38:02;100882.19;;;11.81;100.00
31538;BME280;18147;51.952;6.146;2023-03-18T06:40:30;100890.31;;;11.80;100.00
31538;BME280;18147;51.952;6.146;2023-03-18T06:42:56;100894.88;;;11.78;100.00
31538;BME280;18147;51.952;6.146;2023-03-18T06:45:32;100896.78;;;12.03;100.00
31538;BME280;18147;51.952;6.146;2023-03-18T06:48:03;100904.59;;;12.18;100.00
31538;BME280;18147;51.952;6.146;2023-03-18T06:50:31;100902.00;;;12.04;100.00
31538;BME280;18147;51.952;6.146;2023-03-18T06:52:58;100899.91;;;12.22;100.00
31538;BME280;18147;51.952;6.146;2023-03-18T06:55:27;100895.63;;;12.32;100.00
31538;BME280;18147;51.952;6.146;2023-03-18T06:57:54;100898.19;;;12.34;100.00
31538;BME280;18147;51.952;6.146;2023-03-18T07:00:25;100901.94;;;12.44;100.00
31538;BME280;18147;51.952;6.146;2023-03-18T07:02:51;100903.84;;;12.55;100.00
31538;BME280;18147;51.952;6.146;2023-03-18T07:05:21;100899.03;;;12.60;100.00
31538;BME280;18147;51.952;6.146;2023-03-18T07:07:48;100898.94;;;12.49;100.00
31538;BME280;18147;51.952;6.146;2023-03-18T07:10:20;100895.56;;;12.83;100.00
31538;BME280;18147;51.952;6.146;2023-03-18T07:12:47;100885.53;;;13.24;100.00
31538;BME280;18147;51.952;6.146;2023-03-18T07:15:16;100880.47;;;13.32;100.00
31538;BME280;18147;51.952;6.146;2023-03-18T07:17:45;100879.16;;;13.37;100.00
31538;BME280;18147;51.952;6.146;2023-03-18T07:20:11;100883.19;;;13.43;100.00
31538;BME280;18147;51.952;6.146;2023-03-18T07:22:36;100903.72;;;13.31;100.00
31538;BME280;18147;51.952;6.146;2023-03-18T07:25:02;100915.09;;;13.09;100.00
31538;BME280;18147;51.952;6.146;2023-03-18T07:27:28;100914.50;;;12.93;100.00
31538;BME280;18147;51.952;6.146;2023-03-18T07:29:54;100920.81;;;12.92;100.00
31538;BME280;18147;51.952;6.146;2023-03-18T07:32:19;100918.72;;;13.21;100.00
31538;BME280;18147;51.952;6.146;2023-03-18T07:34:45;100917.56;;;13.00;100.00
31538;BME280;18147;51.952;6.146;2023-03-18T07:37:12;100928.66;;;13.19;100.00
31538;BME280;18147;51.952;6.146;2023-03-18T07:39:38;100940.44;;;13.29;100.00
31538;BME280;18147;51.952;6.146;2023-03-18T07:42:04;100917.03;;;13.68;100.00
31538;BME280;18147;51.952;6.146;2023-03-18T07:44:29;100926.06;;;13.67;100.00
31538;BME280;18147;51.952;6.146;2023-03-18T07:46:56;100924.66;;;13.85;100.00
31538;BME280;18147;51.952;6.146;2023-03-18T07:49:21;100921.88;;;13.87;100.00
31538;BME280;18147;51.952;6.146;2023-03-18T07:51:48;100917.25;;;13.65;100.00
31538;BME280;18147;51.952;6.146;2023-03-18T07:54:13;100916.03;;;13.93;100.00
31538;BME280;18147;51.952;6.146;2023-03-18T07:56:39;100926.38;;;13.86;100.00
31538;BME280;18147;51.952;6.146;2023-03-18T07:59:04;100928.22;;;13.86;100.00
31538;BME280;18147;51.952;6.146;2023-03-18T08:01:30;100915.84;;;14.07;100.00
31538;BME280;18147;51.952;6.146;2023-03-18T08:03:55;100917.84;;;14.28;100.00
31538;BME280;18147;51.952;6.146;2023-03-18T08:06:22;100926.38;;;14.33;100.00
31538;BME280;18147;51.952;6.146;2023-03-18T08:08:48;100924.78;;;15.42;100.00
31538;BME280;18147;51.952;6.146;2023-03-18T08:11:13;100924.94;;;15.18;100.00
31538;BME280;18147;51.952;6.146;2023-03-18T08:13:39;100930.44;;;14.61;100.00
31538;BME280;18147;51.952;6.146;2023-03-18T08:16:05;100938.94;;;13.86;100.00
31538;BME280;18147;51.952;6.146;2023-03-18T08:18:30;100940.53;;;13.99;100.00
31538;BME280;18147;51.952;6.146;2023-03-18T08:20:56;100936.81;;;14.13;100.00
31538;BME280;18147;51.952;6.146;2023-03-18T08:23:22;100938.53;;;14.72;100.00
31538;BME280;18147;51.952;6.146;2023-03-18T08:25:48;100939.59;;;15.14;100.00
31538;BME280;18147;51.952;6.146;2023-03-18T08:28:15;100940.69;;;15.23;100.00
31538;BME280;18147;51.952;6.146;2023-03-18T08:30:41;100949.38;;;14.93;100.00
31538;BME280;18147;51.952;6.146;2023-03-18T08:33:07;100949.22;;;15.28;100.00
31538;BME280;18147;51.952;6.146;2023-03-18T08:35:33;100947.69;;;14.92;100.00
31538;BME280;18147;51.952;6.146;2023-03-18T08:37:58;100948.03;;;15.10;100.00
31538;BME280;18147;51.952;6.146;2023-03-18T08:40:24;100955.13;;;14.99;100.00
31538;BME280;18147;51.952;6.146;2023-03-18T08:42:50;100947.00;;;15.44;100.00
31538;BME280;18147;51.952;6.146;2023-03-18T08:45:17;100959.88;;;15.18;100.00
31538;BME280;18147;51.952;6.146;2023-03-18T08:47:42;100964.38;;;15.18;100.00
31538;BME280;18147;51.952;6.146;2023-03-18T08:50:09;100962.31;;;14.88;100.00
31538;BME280;18147;51.952;6.146;2023-03-18T08:52:35;100967.56;;;15.23;100.00
31538;BME280;18147;51.952;6.146;2023-03-18T08:55:04;100970.63;;;15.18;100.00
31538;BME280;18147;51.952;6.146;2023-03-18T08:57:30;100960.47;;;14.99;100.00
31538;BME280;18147;51.952;6.146;2023-03-18T08:59:56;100954.38;;;15.09;100.00
31538;BME280;18147;51.952;6.146;2023-03-18T09:02:21;100961.31;;;15.34;100.00
31538;BME280;18147;51.952;6.146;2023-03-18T09:04:47;100965.00;;;14.99;100.00
31538;BME280;18147;51.952;6.146;2023-03-18T09:07:13;100962.47;;;14.86;100.00
31538;BME280;18147;51.952;6.146;2023-03-18T09:09:39;100969.53;;;14.76;100.00
31538;BME280;18147;51.952;6.146;2023-03-18T09:12:05;100973.66;;;15.14;100.00
31538;BME280;18147;51.952;6.146;2023-03-18T09:14:31;100960.50;;;15.76;100.00
31538;BME280;18147;51.952;6.146;2023-03-18T09:16:57;100963.56;;;15.61;100.00
31538;BME280;18147;51.952;6.146;2023-03-18T09:19:24;100958.22;;;16.55;100.00
31538;BME280;18147;51.952;6.146;2023-03-18T09:21:50;100958.09;;;16.36;100.00
31538;BME280;18147;51.952;6.146;2023-03-18T09:24:15;100964.66;;;16.64;100.00
31538;BME280;18147;51.952;6.146;2023-03-18T09:26:42;100966.75;;;16.61;100.00
31538;BME280;18147;51.952;6.146;2023-03-18T09:29:08;100957.47;;;16.44;100.00
31538;BME280;18147;51.952;6.146;2023-03-18T09:31:33;100967.97;;;15.62;100.00
31538;BME280;18147;51.952;6.146;2023-03-18T09:33:59;100958.00;;;15.85;100.00
31538;BME280;18147;51.952;6.146;2023-03-18T09:36:25;100969.16;;;15.80;100.00
31538;BME280;18147;51.952;6.146;2023-03-18T09:38:51;100959.22;;;16.54;100.00
31538;BME280;18147;51.952;6.146;2023-03-18T09:44:23;100961.78;;;16.14;100.00
31538;BME280;18147;51.952;6.146;2023-03-18T09:47:39;100968.69;;;16.49;100.00
31538;BME280;18147;51.952;6.146;2023-03-18T09:55:31;100974.44;;;16.65;100.00
31538;BME280;18147;51.952;6.146;2023-03-18T09:58:01;100966.59;;;16.52;100.00
31538;BME280;18147;51.952;6.146;2023-03-18T10:00:35;100969.16;;;16.33;100.00
31538;BME280;18147;51.952;6.146;2023-03-18T10:03:09;100977.94;;;16.35;100.00
31538;BME280;18147;51.952;6.146;2023-03-18T10:05:50;100974.38;;;16.55;100.00
31538;BME280;18147;51.952;6.146;2023-03-18T10:08:32;100981.13;;;16.92;100.00
31538;BME280;18147;51.952;6.146;2023-03-18T10:11:06;100986.34;;;16.63;100.00
31538;BME280;18147;51.952;6.146;2023-03-18T10:13:46;100986.81;;;16.89;100.00
31538;BME280;18147;51.952;6.146;2023-03-18T10:16:21;100982.56;;;16.96;100.00
31538;BME280;18147;51.952;6.146;2023-03-18T10:18:49;100989.22;;;16.71;100.00
31538;BME280;18147;51.952;6.146;2023-03-18T10:23:54;100984.09;;;16.89;100.00
31538;BME280;18147;51.952;6.146;2023-03-18T10:26:46;100984.63;;;17.53;100.00
31538;BME280;18147;51.952;6.146;2023-03-18T10:37:38;100970.06;;;18.14;94.79
31538;BME280;18147;51.952;6.146;2023-03-18T10:40:17;100974.44;;;18.34;93.15
31538;BME280;18147;51.952;6.146;2023-03-18T10:42:43;100971.59;;;18.46;91.33
31538;BME280;18147;51.952;6.146;2023-03-18T10:45:26;100976.56;;;18.41;94.28
31538;BME280;18147;51.952;6.146;2023-03-18T10:48:11;100971.81;;;18.62;93.31
31538;BME280;18147;51.952;6.146;2023-03-18T10:53:29;100961.94;;;18.43;88.68
31538;BME280;18147;51.952;6.146;2023-03-18T10:56:07;100969.63;;;19.22;87.30
31538;BME280;18147;51.952;6.146;2023-03-18T10:58:33;100966.28;;;19.10;85.95
31538;BME280;18147;51.952;6.146;2023-03-18T11:00:59;100967.22;;;18.92;85.44
31538;BME280;18147;51.952;6.146;2023-03-18T11:03:32;100959.56;;;18.87;84.17
31538;BME280;18147;51.952;6.146;2023-03-18T11:06:01;100959.97;;;18.92;84.72
31538;BME280;18147;51.952;6.146;2023-03-18T11:08:36;100956.31;;;18.83;83.47
31538;BME280;18147;51.952;6.146;2023-03-18T11:11:21;100951.84;;;18.92;81.17
31538;BME280;18147;51.952;6.146;2023-03-18T11:13:55;100957.44;;;19.18;81.79
31538;BME280;18147;51.952;6.146;2023-03-18T11:16:24;100950.31;;;18.89;80.19
31538;BME280;18147;51.952;6.146;2023-03-18T11:18:53;100956.47;;;18.72;79.93
31538;BME280;18147;51.952;6.146;2023-03-18T11:21:19;100958.25;;;18.25;82.96
31538;BME280;18147;51.952;6.146;2023-03-18T11:23:51;100948.63;;;18.88;84.34
31538;BME280;18147;51.952;6.146;2023-03-18T11:26:42;100944.22;;;19.15;85.49
31538;BME280;18147;51.952;6.146;2023-03-18T11:29:15;100936.44;;;19.02;80.68
31538;BME280;18147;51.952;6.146;2023-03-18T11:31:54;100937.41;;;19.11;82.87
31538;BME280;18147;51.952;6.146;2023-03-18T11:34:26;100932.28;;;18.80;82.44
31538;BME280;18147;51.952;6.146;2023-03-18T11:37:03;100941.72;;;19.04;83.51
31538;BME280;18147;51.952;6.146;2023-03-18T11:39:31;100938.88;;;18.58;81.89
31538;BME280;18147;51.952;6.146;2023-03-18T11:42:25;100938.91;;;18.96;83.55
31538;BME280;18147;51.952;6.146;2023-03-18T11:44:53;100937.72;;;19.08;79.63
31538;BME280;18147;51.952;6.146;2023-03-18T11:47:25;100939.31;;;19.28;80.11
31538;BME280;18147;51.952;6.146;2023-03-18T11:49:52;100931.66;;;19.24;78.62
31538;BME280;18147;51.952;6.146;2023-03-18T11:55:43;100934.53;;;19.40;77.20
31538;BME280;18147;51.952;6.146;2023-03-18T11:58:24;100938.84;;;19.60;76.79
31538;BME280;18147;51.952;6.146;2023-03-18T12:04:13;100925.25;;;20.32;76.44
31538;BME280;18147;51.952;6.146;2023-03-18T12:10:21;100935.91;;;18.42;78.13
31538;BME280;18147;51.952;6.146;2023-03-18T12:15:49;100931.19;;;20.35;76.23
31538;BME280;18147;51.952;6.146;2023-03-18T12:26:46;100921.38;;;19.90;72.73
31538;BME280;18147;51.952;6.146;2023-03-18T12:29:34;100923.41;;;18.98;74.62
31538;BME280;18147;51.952;6.146;2023-03-18T12:32:22;100922.16;;;19.37;75.60
31538;BME280;18147;51.952;6.146;2023-03-18T12:35:17;100919.59;;;19.81;73.46
31538;BME280;18147;51.952;6.146;2023-03-18T12:40:43;100929.09;;;20.03;71.56
31538;BME280;18147;51.952;6.146;2023-03-18T12:46:17;100919.97;;;19.86;71.98
31538;BME280;18147;51.952;6.146;2023-03-18T12:49:02;100930.41;;;19.99;71.24
31538;BME280;18147;51.952;6.146;2023-03-18T12:51:47;100929.97;;;19.40;73.88
31538;BME280;18147;51.952;6.146;2023-03-18T12:54:19;100931.78;;;19.22;73.84
31538;BME280;18147;51.952;6.146;2023-03-18T12:56:48;100930.53;;;19.44;74.75
31538;BME280;18147;51.952;6.146;2023-03-18T12:59:23;100924.16;;;19.81;76.13
31538;BME280;18147;51.952;6.146;2023-03-18T13:02:18;100930.19;;;19.29;75.39
31538;BME280;18147;51.952;6.146;2023-03-18T13:04:58;100926.41;;;19.40;75.38
31538;BME280;18147;51.952;6.146;2023-03-18T13:07:36;100920.91;;;19.32;75.35
31538;BME280;18147;51.952;6.146;2023-03-18T13:10:20;100926.38;;;18.95;75.84
31538;BME280;18147;51.952;6.146;2023-03-18T13:12:50;100929.66;;;18.98;76.52
31538;BME280;18147;51.952;6.146;2023-03-18T13:15:27;100929.91;;;18.68;77.94
31538;BME280;18147;51.952;6.146;2023-03-18T13:17:59;100927.03;;;19.34;77.49
31538;BME280;18147;51.952;6.146;2023-03-18T13:20:30;100928.94;;;18.96;75.60
31538;BME280;18147;51.952;6.146;2023-03-18T13:23:24;100922.09;;;19.29;74.84
31538;BME280;18147;51.952;6.146;2023-03-18T13:37:09;100936.94;;;18.22;80.19
31538;BME280;18147;51.952;6.146;2023-03-18T13:42:34;100933.41;;;18.02;79.92
31538;BME280;18147;51.952;6.146;2023-03-18T13:45:26;100931.25;;;17.67;81.36
31538;BME280;18147;51.952;6.146;2023-03-18T13:48:15;100924.19;;;18.04;81.86
31538;BME280;18147;51.952;6.146;2023-03-18T13:50:43;100925.84;;;18.44;82.04
31538;BME280;18147;51.952;6.146;2023-03-18T13:53:37;100918.84;;;18.98;78.21
31538;BME280;18147;51.952;6.146;2023-03-18T13:56:06;100925.41;;;19.23;78.65
31538;BME280;18147;51.952;6.146;2023-03-18T13:58:50;100929.78;;;19.24;77.93
31538;BME280;18147;51.952;6.146;2023-03-18T14:01:34;100929.53;;;19.18;76.90
31538;BME280;18147;51.952;6.146;2023-03-18T14:07:11;100924.28;;;18.88;77.73